createdAt,value
2022-11-15T00:02:53.652Z,4.10
2022-11-15T00:08:17.335Z,4.00
2022-11-15T00:13:40.043Z,4.00
2022-11-15T00:19:01.909Z,4.00
2022-11-15T00:24:25.114Z,4.30
2022-11-15T00:29:46.756Z,4.20
2022-11-15T00:35:09.219Z,4.00
2022-11-15T00:40:32.733Z,3.80
2022-11-15T00:45:54.465Z,3.70
2022-11-15T00:51:16.492Z,3.70
2022-11-15T00:56:39.792Z,3.70
2022-11-15T01:02:02.284Z,3.60
2022-11-15T01:07:24.607Z,3.50
2022-11-15T01:12:48.166Z,3.50
2022-11-15T01:18:10.206Z,3.50
2022-11-15T01:23:32.446Z,3.50
2022-11-15T01:28:55.705Z,3.40
2022-11-15T01:34:17.620Z,3.50
2022-11-15T01:39:39.704Z,3.40
2022-11-15T01:45:03.553Z,3.20
2022-11-15T01:50:31.572Z,3.40
2022-11-15T01:55:54.967Z,3.40
2022-11-15T02:01:19.170Z,3.30
2022-11-15T02:06:42.273Z,3.30
2022-11-15T02:12:04.881Z,3.20
2022-11-15T02:17:49.437Z,3.20
2022-11-15T02:23:42.483Z,3.10
2022-11-15T02:29:06.913Z,3.10
2022-11-15T02:34:38.134Z,3.10
2022-11-15T02:40:08.049Z,3.10
2022-11-15T02:45:33.328Z,3.10
2022-11-15T02:50:56.493Z,3.30
2022-11-15T02:56:18.510Z,3.20
2022-11-15T03:01:50.257Z,3.20
2022-11-15T03:07:19.720Z,3.10
2022-11-15T03:12:47.217Z,3.00
2022-11-15T03:18:17.273Z,3.10
2022-11-15T03:23:40.763Z,3.30
2022-11-15T03:29:07.458Z,3.30
2022-11-15T03:34:33.295Z,3.50
2022-11-15T03:39:56.781Z,3.50
2022-11-15T03:45:23.910Z,3.40
2022-11-15T03:50:47.314Z,3.30
2022-11-15T03:56:10.314Z,3.30
2022-11-15T04:01:31.966Z,3.50
2022-11-15T04:06:53.925Z,3.50
2022-11-15T04:12:31.670Z,3.40
2022-11-15T04:17:55.297Z,3.40
2022-11-15T04:23:38.013Z,3.60
2022-11-15T04:29:20.088Z,3.40
2022-11-15T04:34:41.989Z,3.20
2022-11-15T04:40:04.434Z,3.10
2022-11-15T04:45:27.260Z,3.10
2022-11-15T04:50:49.672Z,3.10
2022-11-15T04:56:13.900Z,3.00
2022-11-15T05:01:41.943Z,3.10
2022-11-15T05:07:06.583Z,3.00
2022-11-15T05:12:28.957Z,2.90
2022-11-15T05:17:51.955Z,3.10
2022-11-15T05:23:13.808Z,3.30
2022-11-15T05:28:37.341Z,3.10
2022-11-15T05:34:03.026Z,3.00
2022-11-15T05:39:26.917Z,3.00
2022-11-15T05:44:50.449Z,2.90
2022-11-15T05:50:16.323Z,2.90
2022-11-15T05:55:40.018Z,2.80
2022-11-15T06:01:01.713Z,2.70
2022-11-15T06:06:24.821Z,2.70
2022-11-15T06:11:46.485Z,2.70
2022-11-15T06:17:11.333Z,2.70
2022-11-15T06:22:34.789Z,2.90
2022-11-15T06:27:57.543Z,3.00
2022-11-15T06:33:19.906Z,2.90
2022-11-15T06:38:43.993Z,3.10
2022-11-15T06:44:05.795Z,3.20
2022-11-15T06:49:27.993Z,3.10
2022-11-15T06:54:50.825Z,3.00
2022-11-15T07:00:14.002Z,3.10
2022-11-15T07:05:36.447Z,3.10
2022-11-15T07:11:05.234Z,3.30
2022-11-15T07:16:29.125Z,3.40
2022-11-15T07:21:51.741Z,3.50
2022-11-15T07:27:14.972Z,3.70
2022-11-15T07:32:37.308Z,3.80
2022-11-15T07:38:01.087Z,4.10
2022-11-15T07:43:24.555Z,4.50
2022-11-15T07:48:46.356Z,4.70
2022-11-15T07:54:08.483Z,4.90
2022-11-15T07:59:31.869Z,5.10
2022-11-15T08:04:53.478Z,5.30
2022-11-15T08:10:19.996Z,5.50
2022-11-15T08:15:44.690Z,5.60
2022-11-15T08:21:06.939Z,5.90
2022-11-15T08:26:30.976Z,6.10
2022-11-15T08:31:55.803Z,6.70
2022-11-15T08:37:18.643Z,7.10
2022-11-15T08:42:40.821Z,7.70
2022-11-15T08:48:04.453Z,8.70
2022-11-15T08:53:26.807Z,9.80
2022-11-15T08:58:48.587Z,11.60
2022-11-15T09:04:12.058Z,12.70
2022-11-15T09:09:34.574Z,12.80
2022-11-15T09:14:56.316Z,13.30
2022-11-15T09:20:19.869Z,13.60
2022-11-15T09:25:42.054Z,13.50
2022-11-15T09:31:06.187Z,13.90
2022-11-15T09:36:29.521Z,13.20
2022-11-15T09:42:07.130Z,12.10
2022-11-15T09:47:44.721Z,11.40
2022-11-15T09:53:14.151Z,10.90
2022-11-15T09:58:25.749Z,10.50
2022-11-15T10:03:31.653Z,10.40
2022-11-15T10:08:55.547Z,10.60
2022-11-15T10:14:02.499Z,10.80
2022-11-15T10:19:13.524Z,10.80
2022-11-15T10:24:21.318Z,10.80
2022-11-15T10:29:27.186Z,11.00
2022-11-15T10:34:36.242Z,11.30
2022-11-15T10:39:41.041Z,11.80
2022-11-15T10:44:45.775Z,12.40
2022-11-15T10:49:56.613Z,12.70
2022-11-15T10:55:06.543Z,12.90
2022-11-15T11:00:29.955Z,12.50
2022-11-15T11:05:41.336Z,12.60
2022-11-15T11:10:58.616Z,12.40
2022-11-15T11:16:39.267Z,12.60
2022-11-15T11:21:50.655Z,13.70
2022-11-15T11:27:09.675Z,14.30
2022-11-15T11:32:31.958Z,13.50
2022-11-15T11:37:41.017Z,13.00
2022-11-15T11:43:00.364Z,12.90
2022-11-15T11:48:13.838Z,13.20
2022-11-15T11:53:26.255Z,13.10
2022-11-15T11:58:36.785Z,12.90
2022-11-15T12:03:46.746Z,12.70
2022-11-15T12:08:54.814Z,13.00
2022-11-15T12:14:02.445Z,14.20
2022-11-15T12:19:06.298Z,15.80
2022-11-15T12:24:16.506Z,16.50
2022-11-15T12:29:27.836Z,16.80
2022-11-15T12:34:42.479Z,17.40
2022-11-15T12:40:19.268Z,17.60
2022-11-15T12:45:30.987Z,17.50
2022-11-15T12:50:57.513Z,17.40
2022-11-15T12:56:23.305Z,16.90
2022-11-15T13:02:00.861Z,16.60
2022-11-15T13:07:05.960Z,16.30
2022-11-15T13:12:09.558Z,16.20
2022-11-15T13:17:30.642Z,16.30
2022-11-15T13:22:52.770Z,16.30
2022-11-15T13:27:59.640Z,15.90
2022-11-15T13:33:11.955Z,15.10
2022-11-15T13:38:25.994Z,14.00
2022-11-15T13:43:35.407Z,13.70
2022-11-15T13:48:40.102Z,13.30
2022-11-15T13:53:47.575Z,13.10
2022-11-15T13:58:51.394Z,13.00
2022-11-15T14:03:58.438Z,12.90
2022-11-15T14:09:16.819Z,12.80
2022-11-15T14:14:23.235Z,12.80
2022-11-15T14:19:40.371Z,12.50
2022-11-15T14:24:46.768Z,12.50
2022-11-15T14:29:50.904Z,12.20
2022-11-15T14:34:57.949Z,12.30
2022-11-15T14:40:01.698Z,12.20
2022-11-15T14:45:12.953Z,12.10
2022-11-15T14:50:20.328Z,11.80
2022-11-15T14:55:25.634Z,11.60
2022-11-15T15:00:34.823Z,11.40
2022-11-15T15:05:42.513Z,10.90
2022-11-15T15:10:46.702Z,10.80
2022-11-15T15:15:51.058Z,10.60
2022-11-15T15:21:01.241Z,10.70
2022-11-15T15:26:05.353Z,10.50
2022-11-15T15:31:10.416Z,10.50
2022-11-15T15:36:19.028Z,10.30
2022-11-15T15:41:22.645Z,10.00
2022-11-15T15:46:26.319Z,9.60
2022-11-15T15:51:31.021Z,9.40
2022-11-15T15:56:34.213Z,9.10
2022-11-15T16:01:37.370Z,8.70
2022-11-15T16:06:45.216Z,8.40
2022-11-15T16:11:48.491Z,8.20
2022-11-15T16:16:51.619Z,8.10
2022-11-15T16:21:56.095Z,8.20
2022-11-15T16:26:59.460Z,8.20
2022-11-15T16:32:02.937Z,8.30
2022-11-15T16:37:19.718Z,8.40
2022-11-15T16:42:23.197Z,8.60
2022-11-15T16:47:26.394Z,8.60
2022-11-15T16:52:30.974Z,8.80
2022-11-15T16:57:34.963Z,8.80
2022-11-15T17:02:38.118Z,8.80
2022-11-15T17:07:43.183Z,8.70
2022-11-15T17:12:46.566Z,8.60
2022-11-15T17:17:52.139Z,8.50
2022-11-15T17:22:56.711Z,8.30
2022-11-15T17:28:00.163Z,8.20
2022-11-15T17:33:03.561Z,8.00
2022-11-15T17:38:08.133Z,7.90
2022-11-15T17:43:11.472Z,7.70
2022-11-15T17:48:14.870Z,7.70
2022-11-15T17:53:19.365Z,7.50
2022-11-15T17:58:23.015Z,7.40
2022-11-15T18:03:26.675Z,7.30
2022-11-15T18:08:31.199Z,7.20
2022-11-15T18:13:36.143Z,7.10
2022-11-15T18:18:39.970Z,7.00
2022-11-15T18:23:44.868Z,6.90
2022-11-15T18:28:49.805Z,6.80
2022-11-15T18:33:54.000Z,6.60
2022-11-15T18:39:02.379Z,6.50
2022-11-15T18:44:07.294Z,6.50
2022-11-15T18:49:12.536Z,6.30
2022-11-15T18:54:18.101Z,6.20
2022-11-15T18:59:21.318Z,6.10
2022-11-15T19:04:24.651Z,6.10
2022-11-15T19:09:32.755Z,6.10
2022-11-15T19:14:36.061Z,6.10
2022-11-15T19:19:39.408Z,6.20
2022-11-15T19:24:44.231Z,6.20
2022-11-15T19:29:47.446Z,6.30
2022-11-15T19:34:51.078Z,6.20
2022-11-15T19:39:56.751Z,6.20
2022-11-15T19:45:00.670Z,6.30
2022-11-15T19:50:06.640Z,6.30
2022-11-15T19:55:11.534Z,6.30
2022-11-15T20:00:15.103Z,6.30
2022-11-15T20:05:18.591Z,6.30
2022-11-15T20:10:23.349Z,6.40
2022-11-15T20:15:26.562Z,6.40
2022-11-15T20:20:30.606Z,6.40
2022-11-15T20:25:38.959Z,6.40
2022-11-15T20:30:43.168Z,6.50
2022-11-15T20:35:46.444Z,6.50
2022-11-15T20:40:57.422Z,6.50
2022-11-15T20:46:02.184Z,6.60
2022-11-15T20:51:07.808Z,6.60
2022-11-15T20:56:15.181Z,6.60
2022-11-15T21:01:23.776Z,6.60
2022-11-15T21:06:27.606Z,6.60
2022-11-15T21:11:51.557Z,6.50
2022-11-15T21:16:54.997Z,6.50
2022-11-15T21:21:58.470Z,6.60
2022-11-15T21:27:03.616Z,6.50
2022-11-15T21:32:08.363Z,6.50
2022-11-15T21:37:11.863Z,6.50
2022-11-15T21:42:16.587Z,6.50
2022-11-15T21:47:19.775Z,6.50
2022-11-15T21:52:23.016Z,6.50
2022-11-15T21:57:30.185Z,6.50
2022-11-15T22:02:33.608Z,6.50
2022-11-15T22:07:37.471Z,6.50
2022-11-15T22:12:42.564Z,6.50
2022-11-15T22:17:58.228Z,6.50
2022-11-15T22:23:02.283Z,6.50
2022-11-15T22:28:08.891Z,6.50
2022-11-15T22:33:12.881Z,6.50
2022-11-15T22:38:17.937Z,6.50
2022-11-15T22:43:24.977Z,6.30
2022-11-15T22:48:31.433Z,6.50
2022-11-15T22:53:35.868Z,6.50
2022-11-15T22:58:40.923Z,6.50
2022-11-15T23:03:44.495Z,6.50
2022-11-15T23:08:48.125Z,6.40
2022-11-15T23:13:53.506Z,6.40
2022-11-15T23:18:58.170Z,6.50
2022-11-15T23:24:01.694Z,6.30
2022-11-15T23:29:06.284Z,6.40
2022-11-15T23:34:10.705Z,6.40
2022-11-15T23:39:15.734Z,6.30
2022-11-15T23:44:20.329Z,6.20
2022-11-15T23:49:24.316Z,6.10
2022-11-15T23:54:27.975Z,6.20
2022-11-15T23:59:32.581Z,6.20
